sensor_id;sensor_type;location;lat;lon;timestamp;pressure;altitude;pressure_sealevel;temperature;humidity
9281;BME280;4679;47.966;7.958;2023-01-13T07:44:26;96892.03;;;10.23;69.50
9281;BME280;4679;47.966;7.958;2023-01-13T07:46:27;96891.25;;;10.22;69.48
9281;BME280;4679;47.966;7.958;2023-01-13T07:48:31;96874.78;;;10.20;70.10
9281;BME280;4679;47.966;7.958;2023-01-13T07:50:33;96861.75;;;10.18;70.08
9281;BME280;4679;47.966;7.958;2023-01-13T07:52:34;96863.25;;;10.14;70.23
9281;BME280;4679;47.966;7.958;2023-01-13T07:54:36;96873.63;;;10.16;70.46
9281;BME280;4679;47.966;7.958;2023-01-13T07:56:38;96882.97;;;10.18;70.29
9281;BME280;4679;47.966;7.958;2023-01-13T07:58:39;96891.88;;;10.12;69.83
9281;BME280;4679;47.966;7.958;2023-01-13T08:00:42;96890.47;;;10.05;70.34
9281;BME280;4679;47.966;7.958;2023-01-13T08:02:44;96882.88;;;9.92;70.80
9281;BME280;4679;47.966;7.958;2023-01-13T08:04:46;96902.63;;;9.84;71.63
9281;BME280;4679;47.966;7.958;2023-01-13T08:06:47;96903.91;;;9.81;71.98
9281;BME280;4679;47.966;7.958;2023-01-13T08:08:49;96908.59;;;9.74;72.04
9281;BME280;4679;47.966;7.958;2023-01-13T08:10:51;96915.09;;;9.67;71.50
9281;BME280;4679;47.966;7.958;2023-01-13T08:12:53;96940.16;;;9.59;71.71
9281;BME280;4679;47.966;7.958;2023-01-13T08:15:12;96915.66;;;9.52;72.25
9281;BME280;4679;47.966;7.958;2023-01-13T08:17:16;96904.75;;;9.48;72.95
9281;BME280;4679;47.966;7.958;2023-01-13T08:19:17;96918.41;;;9.40;72.51
9281;BME280;4679;47.966;7.958;2023-01-13T08:21:19;96925.31;;;9.41;73.26
9281;BME280;4679;47.966;7.958;2023-01-13T08:23:22;96923.94;;;9.39;72.88
9281;BME280;4679;47.966;7.958;2023-01-13T08:25:23;96936.28;;;9.33;73.12
9281;BME280;4679;47.966;7.958;2023-01-13T08:27:26;96928.84;;;9.30;73.81
9281;BME280;4679;47.966;7.958;2023-01-13T08:29:27;96942.59;;;9.32;73.69
9281;BME280;4679;47.966;7.958;2023-01-13T08:31:29;96937.41;;;9.37;74.47
9281;BME280;4679;47.966;7.958;2023-01-13T08:33:32;96936.28;;;9.33;74.42
9281;BME280;4679;47.966;7.958;2023-01-13T08:35:35;96942.94;;;9.36;74.57
9281;BME280;4679;47.966;7.958;2023-01-13T08:37:37;96948.22;;;9.36;74.28
9281;BME280;4679;47.966;7.958;2023-01-13T08:39:38;96943.50;;;9.38;73.82
9281;BME280;4679;47.966;7.958;2023-01-13T08:41:42;96954.66;;;9.40;74.62
9281;BME280;4679;47.966;7.958;2023-01-13T08:43:55;96949.84;;;9.37;75.01
9281;BME280;4679;47.966;7.958;2023-01-13T08:45:58;96965.50;;;9.38;74.33
9281;BME280;4679;47.966;7.958;2023-01-13T08:48:01;96966.41;;;9.44;74.78
9281;BME280;4679;47.966;7.958;2023-01-13T08:50:06;96960.13;;;9.50;75.42
9281;BME280;4679;47.966;7.958;2023-01-13T08:52:08;96967.03;;;9.51;74.74
9281;BME280;4679;47.966;7.958;2023-01-13T08:54:10;97005.47;;;9.53;74.70
9281;BME280;4679;47.966;7.958;2023-01-13T08:56:12;96989.09;;;9.57;75.16
9281;BME280;4679;47.966;7.958;2023-01-13T08:58:14;96956.28;;;9.58;75.06
9281;BME280;4679;47.966;7.958;2023-01-13T09:00:16;96959.25;;;9.61;75.68
9281;BME280;4679;47.966;7.958;2023-01-13T09:02:19;96999.06;;;9.66;74.49
9281;BME280;4679;47.966;7.958;2023-01-13T09:04:24;96986.47;;;9.73;75.17
9281;BME280;4679;47.966;7.958;2023-01-13T09:06:28;96972.75;;;9.76;74.84
9281;BME280;4679;47.966;7.958;2023-01-13T09:08:30;96983.88;;;9.78;74.39
9281;BME280;4679;47.966;7.958;2023-01-13T09:10:31;96981.50;;;9.77;74.66
9281;BME280;4679;47.966;7.958;2023-01-13T09:12:35;96988.13;;;9.79;75.47
9281;BME280;4679;47.966;7.958;2023-01-13T09:14:54;96982.69;;;9.86;75.20
9281;BME280;4679;47.966;7.958;2023-01-13T09:16:57;96989.13;;;9.90;74.25
9281;BME280;4679;47.966;7.958;2023-01-13T09:18:58;96988.06;;;9.91;73.83
9281;BME280;4679;47.966;7.958;2023-01-13T09:21:00;96990.06;;;10.01;74.64
9281;BME280;4679;47.966;7.958;2023-01-13T09:23:04;96982.75;;;10.08;74.04
9281;BME280;4679;47.966;7.958;2023-01-13T09:25:06;96994.47;;;10.12;74.80
9281;BME280;4679;47.966;7.958;2023-01-13T09:27:08;96973.34;;;10.17;74.71
9281;BME280;4679;47.966;7.958;2023-01-13T09:29:09;96980.59;;;10.21;73.75
9281;BME280;4679;47.966;7.958;2023-01-13T09:31:11;96991.50;;;10.25;74.02
9281;BME280;4679;47.966;7.958;2023-01-13T09:33:13;96990.28;;;10.33;73.11
9281;BME280;4679;47.966;7.958;2023-01-13T09:35:32;97001.34;;;10.46;73.61
9281;BME280;4679;47.966;7.958;2023-01-13T09:37:37;97009.19;;;10.58;73.04
9281;BME280;4679;47.966;7.958;2023-01-13T09:39:41;97011.69;;;10.70;72.76
9281;BME280;4679;47.966;7.958;2023-01-13T09:41:44;97003.63;;;10.81;71.90
9281;BME280;4679;47.966;7.958;2023-01-13T09:44:08;96991.09;;;10.77;72.70
9281;BME280;4679;47.966;7.958;2023-01-13T09:46:15;97005.97;;;10.78;72.50
9281;BME280;4679;47.966;7.958;2023-01-13T09:48:34;97012.25;;;10.72;72.65
9281;BME280;4679;47.966;7.958;2023-01-13T09:50:59;96998.44;;;10.70;72.89
9281;BME280;4679;47.966;7.958;2023-01-13T09:53:11;97010.38;;;10.67;73.08
9281;BME280;4679;47.966;7.958;2023-01-13T09:55:17;97015.03;;;10.60;72.77
9281;BME280;4679;47.966;7.958;2023-01-13T09:57:19;97026.91;;;10.52;72.26
9281;BME280;4679;47.966;7.958;2023-01-13T09:59:22;97010.59;;;10.44;72.88
9281;BME280;4679;47.966;7.958;2023-01-13T10:01:29;97014.28;;;10.43;73.44
9281;BME280;4679;47.966;7.958;2023-01-13T10:03:33;97015.31;;;10.42;72.29
9281;BME280;4679;47.966;7.958;2023-01-13T10:05:37;97019.25;;;10.39;72.11
9281;BME280;4679;47.966;7.958;2023-01-13T10:07:45;97023.59;;;10.45;73.16
9281;BME280;4679;47.966;7.958;2023-01-13T10:09:50;97022.59;;;10.68;71.69
9281;BME280;4679;47.966;7.958;2023-01-13T10:11:55;97030.44;;;10.80;71.19
9281;BME280;4679;47.966;7.958;2023-01-13T10:14:18;97024.97;;;10.91;70.85
9281;BME280;4679;47.966;7.958;2023-01-13T10:16:27;97017.03;;;10.91;70.92
9281;BME280;4679;47.966;7.958;2023-01-13T10:18:38;97025.53;;;10.93;70.56
9281;BME280;4679;47.966;7.958;2023-01-13T10:20:51;97005.72;;;11.01;71.21
9281;BME280;4679;47.966;7.958;2023-01-13T10:23:02;97017.19;;;11.07;70.52
9281;BME280;4679;47.966;7.958;2023-01-13T10:25:18;97017.50;;;11.10;70.08
9281;BME280;4679;47.966;7.958;2023-01-13T10:27:27;97009.56;;;11.15;69.86
9281;BME280;4679;47.966;7.958;2023-01-13T10:29:31;97031.69;;;11.21;69.53
9281;BME280;4679;47.966;7.958;2023-01-13T10:31:33;97013.97;;;11.26;69.43
9281;BME280;4679;47.966;7.958;2023-01-13T10:33:35;97009.22;;;11.28;69.77
9281;BME280;4679;47.966;7.958;2023-01-13T10:35:52;97006.78;;;11.27;69.96
9281;BME280;4679;47.966;7.958;2023-01-13T10:37:56;97016.31;;;11.23;69.89
9281;BME280;4679;47.966;7.958;2023-01-13T10:40:00;97008.53;;;11.16;68.88
9281;BME280;4679;47.966;7.958;2023-01-13T10:42:03;97017.34;;;11.22;68.79
9281;BME280;4679;47.966;7.958;2023-01-13T10:44:13;97026.63;;;11.19;68.68
9281;BME280;4679;47.966;7.958;2023-01-13T10:46:15;97034.09;;;11.22;68.54
9281;BME280;4679;47.966;7.958;2023-01-13T10:48:18;97032.97;;;11.18;69.30
9281;BME280;4679;47.966;7.958;2023-01-13T10:50:23;97038.66;;;11.27;68.74
9281;BME280;4679;47.966;7.958;2023-01-13T10:52:28;97041.44;;;11.37;68.68
9281;BME280;4679;47.966;7.958;2023-01-13T10:54:30;97056.38;;;11.43;68.04
9281;BME280;4679;47.966;7.958;2023-01-13T10:56:33;97057.75;;;11.51;68.39
9281;BME280;4679;47.966;7.958;2023-01-13T10:58:34;97029.00;;;11.43;67.72
9281;BME280;4679;47.966;7.958;2023-01-13T11:00:38;97047.88;;;11.46;68.24
9281;BME280;4679;47.966;7.958;2023-01-13T11:02:40;97044.41;;;11.46;67.54
9281;BME280;4679;47.966;7.958;2023-01-13T11:04:43;97039.31;;;11.39;67.27
9281;BME280;4679;47.966;7.958;2023-01-13T11:06:57;97049.16;;;11.39;67.93
9281;BME280;4679;47.966;7.958;2023-01-13T11:09:00;97048.19;;;11.23;67.06
9281;BME280;4679;47.966;7.958;2023-01-13T11:11:02;97053.91;;;11.37;66.74
9281;BME280;4679;47.966;7.958;2023-01-13T11:13:07;97026.63;;;11.46;66.61
9281;BME280;4679;47.966;7.958;2023-01-13T11:15:14;97033.94;;;11.61;66.68
9281;BME280;4679;47.966;7.958;2023-01-13T11:17:33;97026.16;;;11.76;66.82
9281;BME280;4679;47.966;7.958;2023-01-13T11:19:40;97044.28;;;11.84;65.65
9281;BME280;4679;47.966;7.958;2023-01-13T11:21:47;97061.91;;;11.90;65.47
9281;BME280;4679;47.966;7.958;2023-01-13T11:23:59;97039.47;;;11.81;65.26
9281;BME280;4679;47.966;7.958;2023-01-13T11:26:05;97036.22;;;11.74;65.49
9281;BME280;4679;47.966;7.958;2023-01-13T11:28:25;97044.78;;;11.81;65.49
9281;BME280;4679;47.966;7.958;2023-01-13T11:30:37;97045.09;;;11.85;65.14
9281;BME280;4679;47.966;7.958;2023-01-13T11:32:52;97045.41;;;11.88;65.57
9281;BME280;4679;47.966;7.958;2023-01-13T11:34:59;97052.91;;;11.96;65.28
9281;BME280;4679;47.966;7.958;2023-01-13T11:37:08;97054.72;;;11.91;65.37
9281;BME280;4679;47.966;7.958;2023-01-13T11:39:17;97043.78;;;11.87;64.64
9281;BME280;4679;47.966;7.958;2023-01-13T11:41:41;97028.13;;;11.91;64.87
9281;BME280;4679;47.966;7.958;2023-01-13T11:43:46;97063.44;;;11.59;65.81
9281;BME280;4679;47.966;7.958;2023-01-13T11:45:52;97062.75;;;11.42;65.54
9281;BME280;4679;47.966;7.958;2023-01-13T11:47:59;97072.88;;;11.45;65.10
9281;BME280;4679;47.966;7.958;2023-01-13T11:50:02;97064.38;;;11.48;64.67
9281;BME280;4679;47.966;7.958;2023-01-13T11:52:10;97059.59;;;11.45;65.22
9281;BME280;4679;47.966;7.958;2023-01-13T11:54:27;97089.88;;;11.22;65.82
9281;BME280;4679;47.966;7.958;2023-01-13T11:56:46;97090.13;;;10.99;65.80
9281;BME280;4679;47.966;7.958;2023-01-13T11:59:16;97078.56;;;11.32;65.13
9281;BME280;4679;47.966;7.958;2023-01-13T12:01:39;97076.69;;;11.54;64.68
9281;BME280;4679;47.966;7.958;2023-01-13T12:03:59;97083.50;;;11.23;64.83
9281;BME280;4679;47.966;7.958;2023-01-13T12:06:19;97090.63;;;10.96;66.01
9281;BME280;4679;47.966;7.958;2023-01-13T12:08:30;97088.25;;;10.78;65.84
9281;BME280;4679;47.966;7.958;2023-01-13T12:10:46;97093.72;;;10.71;65.63
9281;BME280;4679;47.966;7.958;2023-01-13T12:12:54;97106.63;;;10.63;65.35
9281;BME280;4679;47.966;7.958;2023-01-13T12:18:36;97124.31;;;10.40;66.11
9281;BME280;4679;47.966;7.958;2023-01-13T12:20:51;97110.75;;;10.37;66.49
9281;BME280;4679;47.966;7.958;2023-01-13T12:23:03;97097.72;;;10.35;65.94
9281;BME280;4679;47.966;7.958;2023-01-13T12:25:16;97087.03;;;10.30;66.91
9281;BME280;4679;47.966;7.958;2023-01-13T12:27:29;97080.66;;;10.65;65.69
9281;BME280;4679;47.966;7.958;2023-01-13T12:29:34;97076.97;;;10.87;64.29
9281;BME280;4679;47.966;7.958;2023-01-13T12:31:39;97080.31;;;11.00;64.44
9281;BME280;4679;47.966;7.958;2023-01-13T12:33:47;97088.66;;;11.08;64.93
9281;BME280;4679;47.966;7.958;2023-01-13T12:35:58;97084.31;;;11.24;63.64
9281;BME280;4679;47.966;7.958;2023-01-13T12:38:07;97085.78;;;11.37;63.38
9281;BME280;4679;47.966;7.958;2023-01-13T12:40:18;97085.13;;;11.24;63.93
9281;BME280;4679;47.966;7.958;2023-01-13T12:42:32;97086.41;;;11.22;63.69
9281;BME280;4679;47.966;7.958;2023-01-13T12:45:19;97083.44;;;11.18;64.14
9281;BME280;4679;47.966;7.958;2023-01-13T12:47:33;97091.56;;;11.28;63.83
9281;BME280;4679;47.966;7.958;2023-01-13T12:49:36;97087.84;;;11.08;64.56
9281;BME280;4679;47.966;7.958;2023-01-13T12:52:02;97082.97;;;11.21;63.96
9281;BME280;4679;47.966;7.958;2023-01-13T12:54:32;97091.41;;;11.18;63.63
9281;BME280;4679;47.966;7.958;2023-01-13T12:56:54;97099.94;;;10.99;64.03
9281;BME280;4679;47.966;7.958;2023-01-13T13:01:39;97091.59;;;10.68;64.44
9281;BME280;4679;47.966;7.958;2023-01-13T13:04:08;97087.63;;;10.71;64.55
9281;BME280;4679;47.966;7.958;2023-01-13T13:06:17;97078.13;;;10.75;64.52
9281;BME280;4679;47.966;7.958;2023-01-13T13:08:23;97091.31;;;10.70;63.36
9281;BME280;4679;47.966;7.958;2023-01-13T13:10:28;97091.75;;;10.62;64.76
9281;BME280;4679;47.966;7.958;2023-01-13T13:12:49;97100.38;;;10.52;64.54
9281;BME280;4679;47.966;7.958;2023-01-13T13:15:20;97092.00;;;10.43;64.91
9281;BME280;4679;47.966;7.958;2023-01-13T13:17:59;97085.75;;;10.33;64.55
9281;BME280;4679;47.966;7.958;2023-01-13T13:20:03;97108.66;;;10.22;65.38
9281;BME280;4679;47.966;7.958;2023-01-13T13:22:41;97090.41;;;9.92;65.57
9281;BME280;4679;47.966;7.958;2023-01-13T13:25:21;97105.50;;;9.63;65.90
9281;BME280;4679;47.966;7.958;2023-01-13T13:27:27;97105.13;;;9.14;67.36
9281;BME280;4679;47.966;7.958;2023-01-13T13:29:42;97110.50;;;8.68;68.67
9281;BME280;4679;47.966;7.958;2023-01-13T13:32:06;97106.00;;;8.45;69.68
9281;BME280;4679;47.966;7.958;2023-01-13T13:34:20;97111.78;;;8.54;69.99
9281;BME280;4679;47.966;7.958;2023-01-13T13:36:48;97107.72;;;8.63;69.53
9281;BME280;4679;47.966;7.958;2023-01-13T13:39:04;97132.47;;;8.68;69.77
9281;BME280;4679;47.966;7.958;2023-01-13T13:41:29;97136.81;;;8.74;69.94
9281;BME280;4679;47.966;7.958;2023-01-13T13:43:48;97156.84;;;8.70;70.23
9281;BME280;4679;47.966;7.958;2023-01-13T13:46:25;97150.03;;;8.63;69.95
9281;BME280;4679;47.966;7.958;2023-01-13T13:48:52;97150.03;;;8.51;70.54
9281;BME280;4679;47.966;7.958;2023-01-13T13:50:57;97160.28;;;8.48;70.86
9281;BME280;4679;47.966;7.958;2023-01-13T13:53:03;97164.97;;;8.45;70.96
9281;BME280;4679;47.966;7.958;2023-01-13T13:55:14;97175.09;;;8.49;70.86
9281;BME280;4679;47.966;7.958;2023-01-13T13:57:20;97181.78;;;8.51;70.92
9281;BME280;4679;47.966;7.958;2023-01-13T13:59:25;97181.66;;;8.46;71.01
9281;BME280;4679;47.966;7.958;2023-01-13T14:01:31;97174.16;;;8.43;71.37
9281;BME280;4679;47.966;7.958;2023-01-13T14:03:35;97189.44;;;8.41;70.97
9281;BME280;4679;47.966;7.958;2023-01-13T14:05:37;97186.25;;;8.39;71.05
9281;BME280;4679;47.966;7.958;2023-01-13T14:07:43;97196.81;;;8.39;71.19
9281;BME280;4679;47.966;7.958;2023-01-13T14:09:49;97205.31;;;8.41;71.07
9281;BME280;4679;47.966;7.958;2023-01-13T14:11:55;97199.22;;;8.40;70.79
9281;BME280;4679;47.966;7.958;2023-01-13T14:14:02;97201.59;;;8.30;71.06
9281;BME280;4679;47.966;7.958;2023-01-13T14:16:08;97196.41;;;8.24;71.16
9281;BME280;4679;47.966;7.958;2023-01-13T14:18:12;97205.81;;;8.20;71.19
9281;BME280;4679;47.966;7.958;2023-01-13T14:20:16;97201.78;;;8.17;71.03
9281;BME280;4679;47.966;7.958;2023-01-13T14:22:19;97217.06;;;8.15;71.44
9281;BME280;4679;47.966;7.958;2023-01-13T14:24:20;97224.41;;;8.13;71.25
9281;BME280;4679;47.966;7.958;2023-01-13T14:26:27;97224.19;;;8.15;71.28
9281;BME280;4679;47.966;7.958;2023-01-13T14:28:33;97238.34;;;8.20;71.10
9281;BME280;4679;47.966;7.958;2023-01-13T14:30:36;97217.78;;;8.22;71.28
9281;BME280;4679;47.966;7.958;2023-01-13T14:32:39;97209.63;;;8.24;71.17
9281;BME280;4679;47.966;7.958;2023-01-13T14:34:41;97214.34;;;8.22;71.18
9281;BME280;4679;47.966;7.958;2023-01-13T14:36:44;97213.53;;;8.21;70.67
9281;BME280;4679;47.966;7.958;2023-01-13T14:39:24;97219.63;;;8.22;70.92
9281;BME280;4679;47.966;7.958;2023-01-13T14:41:29;97240.56;;;8.23;70.72
9281;BME280;4679;47.966;7.958;2023-01-13T14:43:33;97242.16;;;8.24;70.52
9281;BME280;4679;47.966;7.958;2023-01-13T14:45:34;97244.81;;;8.24;70.54
9281;BME280;4679;47.966;7.958;2023-01-13T14:47:36;97232.41;;;8.25;70.44
9281;BME280;4679;47.966;7.958;2023-01-13T14:49:40;97226.41;;;8.29;70.13
9281;BME280;4679;47.966;7.958;2023-01-13T14:51:50;97237.56;;;8.31;70.09
9281;BME280;4679;47.966;7.958;2023-01-13T14:53:53;97242.66;;;8.33;70.16
9281;BME280;4679;47.966;7.958;2023-01-13T14:55:55;97241.06;;;8.32;69.89
9281;BME280;4679;47.966;7.958;2023-01-13T14:58:23;97248.16;;;8.31;69.73
9281;BME280;4679;47.966;7.958;2023-01-13T15:00:25;97247.56;;;8.29;69.78
9281;BME280;4679;47.966;7.958;2023-01-13T15:02:45;97248.38;;;8.30;70.10
9281;BME280;4679;47.966;7.958;2023-01-13T15:04:48;97247.72;;;8.34;69.59
9281;BME280;4679;47.966;7.958;2023-01-13T15:06:54;97245.66;;;8.36;68.92
9281;BME280;4679;47.966;7.958;2023-01-13T15:08:57;97250.75;;;8.38;69.14
9281;BME280;4679;47.966;7.958;2023-01-13T15:11:00;97249.72;;;8.39;69.04
9281;BME280;4679;47.966;7.958;2023-01-13T15:13:04;97259.47;;;8.38;69.07
9281;BME280;4679;47.966;7.958;2023-01-13T15:15:20;97275.78;;;8.35;68.85
9281;BME280;4679;47.966;7.958;2023-01-13T15:17:23;97266.25;;;8.34;68.83
9281;BME280;4679;47.966;7.958;2023-01-13T15:19:24;97277.44;;;8.30;68.97
9281;BME280;4679;47.966;7.958;2023-01-13T15:21:26;97277.66;;;8.28;68.96
9281;BME280;4679;47.966;7.958;2023-01-13T15:23:28;97269.97;;;8.27;69.21
9281;BME280;4679;47.966;7.958;2023-01-13T15:25:31;97271.78;;;8.26;68.68
9281;BME280;4679;47.966;7.958;2023-01-13T15:27:32;97265.69;;;8.26;68.95
9281;BME280;4679;47.966;7.958;2023-01-13T15:29:34;97266.50;;;8.26;68.87
9281;BME280;4679;47.966;7.958;2023-01-13T15:31:37;97271.78;;;8.26;68.93
9281;BME280;4679;47.966;7.958;2023-01-13T15:33:39;97269.16;;;8.26;68.82
9281;BME280;4679;47.966;7.958;2023-01-13T15:35:42;97284.19;;;8.26;68.61
9281;BME280;4679;47.966;7.958;2023-01-13T15:37:46;97294.56;;;8.27;68.59
9281;BME280;4679;47.966;7.958;2023-01-13T15:39:48;97299.63;;;8.29;68.56
9281;BME280;4679;47.966;7.958;2023-01-13T15:41:50;97300.44;;;8.29;68.37
9281;BME280;4679;47.966;7.958;2023-01-13T15:44:10;97305.13;;;8.27;68.56
9281;BME280;4679;47.966;7.958;2023-01-13T15:46:29;97309.28;;;8.23;68.69
9281;BME280;4679;47.966;7.958;2023-01-13T15:48:41;97307.66;;;8.22;68.56
9281;BME280;4679;47.966;7.958;2023-01-13T15:50:43;97314.19;;;8.20;68.55
9281;BME280;4679;47.966;7.958;2023-01-13T15:52:44;97310.16;;;8.17;68.52
9281;BME280;4679;47.966;7.958;2023-01-13T15:54:46;97317.50;;;8.15;68.75
9281;BME280;4679;47.966;7.958;2023-01-13T15:56:48;97324.84;;;8.13;68.88
9281;BME280;4679;47.966;7.958;2023-01-13T15:58:49;97326.22;;;8.16;68.56
9281;BME280;4679;47.966;7.958;2023-01-13T16:00:51;97328.88;;;8.16;68.38
9281;BME280;4679;47.966;7.958;2023-01-13T16:02:53;97335.19;;;8.15;68.61
9281;BME280;4679;47.966;7.958;2023-01-13T16:04:56;97338.63;;;8.15;68.73
9281;BME280;4679;47.966;7.958;2023-01-13T16:06:58;97332.31;;;8.16;68.35
9281;BME280;4679;47.966;7.958;2023-01-13T16:08:59;97328.06;;;8.15;68.71
9281;BME280;4679;47.966;7.958;2023-01-13T16:11:01;97335.78;;;8.17;68.45
9281;BME280;4679;47.966;7.958;2023-01-13T16:13:03;97334.16;;;8.16;68.62
9281;BME280;4679;47.966;7.958;2023-01-13T16:15:05;97335.41;;;8.13;68.60
9281;BME280;4679;47.966;7.958;2023-01-13T16:17:14;97317.94;;;8.12;68.27
9281;BME280;4679;47.966;7.958;2023-01-13T16:19:16;97324.50;;;8.09;68.85
9281;BME280;4679;47.966;7.958;2023-01-13T16:21:19;97331.38;;;8.10;68.30
9281;BME280;4679;47.966;7.958;2023-01-13T16:23:21;97323.69;;;8.09;68.60
9281;BME280;4679;47.966;7.958;2023-01-13T16:25:25;97321.03;;;8.09;68.78
9281;BME280;4679;47.966;7.958;2023-01-13T16:27:27;97324.25;;;8.11;68.74
9281;BME280;4679;47.966;7.958;2023-01-13T16:29:29;97335.84;;;8.10;68.42
9281;BME280;4679;47.966;7.958;2023-01-13T16:31:32;97326.09;;;8.10;68.61
9281;BME280;4679;47.966;7.958;2023-01-13T16:33:34;97327.91;;;8.10;68.90
9281;BME280;4679;47.966;7.958;2023-01-13T16:35:35;97337.25;;;8.12;68.82
9281;BME280;4679;47.966;7.958;2023-01-13T16:37:38;97343.34;;;8.13;68.58
9281;BME280;4679;47.966;7.958;2023-01-13T16:39:40;97339.44;;;8.16;68.75
9281;BME280;4679;47.966;7.958;2023-01-13T16:41:42;97343.94;;;8.15;68.91
9281;BME280;4679;47.966;7.958;2023-01-13T16:43:43;97350.25;;;8.14;69.03
9281;BME280;4679;47.966;7.958;2023-01-13T16:45:45;97364.47;;;8.13;69.22
9281;BME280;4679;47.966;7.958;2023-01-13T16:47:47;97359.34;;;8.18;68.94
9281;BME280;4679;47.966;7.958;2023-01-13T16:49:48;97351.56;;;8.23;68.41
9281;BME280;4679;47.966;7.958;2023-01-13T16:51:50;97363.75;;;8.24;68.07
9281;BME280;4679;47.966;7.958;2023-01-13T16:53:53;97366.97;;;8.26;68.59
9281;BME280;4679;47.966;7.958;2023-01-13T16:55:55;97368.34;;;8.29;68.60
9281;BME280;4679;47.966;7.958;2023-01-13T16:57:57;97366.31;;;8.31;68.28
9281;BME280;4679;47.966;7.958;2023-01-13T16:59:58;97352.09;;;8.32;68.35
9281;BME280;4679;47.966;7.958;2023-01-13T17:02:00;97358.59;;;8.29;68.27
9281;BME280;4679;47.966;7.958;2023-01-13T17:04:03;97356.75;;;8.30;68.18
9281;BME280;4679;47.966;7.958;2023-01-13T17:06:07;97373.63;;;8.29;68.26
9281;BME280;4679;47.966;7.958;2023-01-13T17:08:11;97364.47;;;8.31;68.33
9281;BME280;4679;47.966;7.958;2023-01-13T17:10:18;97360.00;;;8.32;68.23
9281;BME280;4679;47.966;7.958;2023-01-13T17:12:20;97386.22;;;8.33;68.27
9281;BME280;4679;47.966;7.958;2023-01-13T17:14:23;97392.53;;;8.32;68.51
9281;BME280;4679;47.966;7.958;2023-01-13T17:16:25;97387.53;;;8.24;68.24
9281;BME280;4679;47.966;7.958;2023-01-13T17:18:27;97403.53;;;8.11;68.57
9281;BME280;4679;47.966;7.958;2023-01-13T17:20:29;97410.16;;;8.02;68.94
9281;BME280;4679;47.966;7.958;2023-01-13T17:22:31;97420.06;;;7.88;68.89
9281;BME280;4679;47.966;7.958;2023-01-13T17:24:32;97424.78;;;7.80;69.34
9281;BME280;4679;47.966;7.958;2023-01-13T17:26:37;97436.88;;;7.69;69.33
9281;BME280;4679;47.966;7.958;2023-01-13T17:28:44;97429.91;;;7.56;69.83
9281;BME280;4679;47.966;7.958;2023-01-13T17:30:46;97428.78;;;7.46;70.92
9281;BME280;4679;47.966;7.958;2023-01-13T17:32:47;97451.16;;;7.36;70.91
9281;BME280;4679;47.966;7.958;2023-01-13T17:34:49;97456.50;;;7.30;71.31
9281;BME280;4679;47.966;7.958;2023-01-13T17:36:51;97447.00;;;7.22;71.49
9281;BME280;4679;47.966;7.958;2023-01-13T17:38:53;97449.06;;;7.20;71.94
9281;BME280;4679;47.966;7.958;2023-01-13T17:41:00;97450.31;;;7.18;71.93
9281;BME280;4679;47.966;7.958;2023-01-13T17:43:03;97458.03;;;7.13;72.28
9281;BME280;4679;47.966;7.958;2023-01-13T17:45:05;97463.94;;;7.15;72.02
9281;BME280;4679;47.966;7.958;2023-01-13T17:47:08;97464.72;;;7.15;72.91
9281;BME280;4679;47.966;7.958;2023-01-13T17:49:10;97454.81;;;7.11;72.21
9281;BME280;4679;47.966;7.958;2023-01-13T17:51:13;97460.69;;;7.13;72.23
9281;BME280;4679;47.966;7.958;2023-01-13T17:53:16;97469.63;;;7.12;72.40
9281;BME280;4679;47.966;7.958;2023-01-13T17:55:17;97474.47;;;7.15;73.33
9281;BME280;4679;47.966;7.958;2023-01-13T17:57:19;97466.78;;;7.13;73.54
9281;BME280;4679;47.966;7.958;2023-01-13T17:59:22;97471.25;;;7.13;72.83
9281;BME280;4679;47.966;7.958;2023-01-13T18:01:24;97469.63;;;7.12;73.40
9281;BME280;4679;47.966;7.958;2023-01-13T18:03:30;97479.16;;;7.13;73.40
9281;BME280;4679;47.966;7.958;2023-01-13T18:05:31;97488.47;;;7.15;74.04
9281;BME280;4679;47.966;7.958;2023-01-13T18:07:34;97498.22;;;7.15;73.32
9281;BME280;4679;47.966;7.958;2023-01-13T18:09:36;97489.91;;;7.18;74.13
9281;BME280;4679;47.966;7.958;2023-01-13T18:11:37;97490.09;;;7.16;74.18
9281;BME280;4679;47.966;7.958;2023-01-13T18:13:39;97489.50;;;7.14;73.58
9281;BME280;4679;47.966;7.958;2023-01-13T18:15:43;97491.16;;;7.09;73.43
9281;BME280;4679;47.966;7.958;2023-01-13T18:17:45;97497.66;;;7.06;74.28
9281;BME280;4679;47.966;7.958;2023-01-13T18:19:47;97504.97;;;7.04;74.33
9281;BME280;4679;47.966;7.958;2023-01-13T18:22:10;97506.63;;;6.98;74.43
9281;BME280;4679;47.966;7.958;2023-01-13T18:24:30;97515.31;;;7.05;74.69
9281;BME280;4679;47.966;7.958;2023-01-13T18:26:49;97524.03;;;7.06;74.16
9281;BME280;4679;47.966;7.958;2023-01-13T18:29:11;97532.38;;;7.03;74.62
9281;BME280;4679;47.966;7.958;2023-01-13T18:31:14;97544.38;;;6.99;74.06
9281;BME280;4679;47.966;7.958;2023-01-13T18:33:16;97544.38;;;6.99;73.99
9281;BME280;4679;47.966;7.958;2023-01-13T18:35:18;97556.38;;;6.95;74.35
9281;BME280;4679;47.966;7.958;2023-01-13T18:37:20;97545.56;;;7.03;74.65
9281;BME280;4679;47.966;7.958;2023-01-13T18:39:21;97552.84;;;7.07;74.38
9281;BME280;4679;47.966;7.958;2023-01-13T18:41:23;97553.06;;;7.06;74.54
9281;BME280;4679;47.966;7.958;2023-01-13T18:43:42;97550.84;;;7.03;74.73
9281;BME280;4679;47.966;7.958;2023-01-13T18:45:48;97565.44;;;7.05;74.83
9281;BME280;4679;47.966;7.958;2023-01-13T18:47:52;97558.72;;;7.10;74.94
9281;BME280;4679;47.966;7.958;2023-01-13T18:49:55;97556.09;;;7.10;74.79
9281;BME280;4679;47.966;7.958;2023-01-13T18:51:57;97557.91;;;7.09;74.60
9281;BME280;4679;47.966;7.958;2023-01-13T18:53:58;97560.16;;;7.05;74.74
9281;BME280;4679;47.966;7.958;2023-01-13T18:56:00;97559.16;;;7.06;73.91
9281;BME280;4679;47.966;7.958;2023-01-13T18:58:04;97561.78;;;7.06;74.54
9281;BME280;4679;47.966;7.958;2023-01-13T19:00:08;97547.56;;;7.07;74.22
9281;BME280;4679;47.966;7.958;2023-01-13T19:02:13;97563.19;;;7.09;74.81
9281;BME280;4679;47.966;7.958;2023-01-13T19:04:17;97555.25;;;7.16;73.72
9281;BME280;4679;47.966;7.958;2023-01-13T19:06:19;97565.59;;;7.17;74.21
9281;BME280;4679;47.966;7.958;2023-01-13T19:08:21;97575.72;;;7.20;74.21
9281;BME280;4679;47.966;7.958;2023-01-13T19:10:23;97575.09;;;7.25;73.83
9281;BME280;4679;47.966;7.958;2023-01-13T19:12:27;97584.03;;;7.24;73.73
9281;BME280;4679;47.966;7.958;2023-01-13T19:14:30;97581.78;;;7.27;73.72
9281;BME280;4679;47.966;7.958;2023-01-13T19:16:36;97597.00;;;7.32;73.45
9281;BME280;4679;47.966;7.958;2023-01-13T19:18:38;97593.75;;;7.30;73.88
9281;BME280;4679;47.966;7.958;2023-01-13T19:20:41;97599.84;;;7.30;73.81
9281;BME280;4679;47.966;7.958;2023-01-13T19:22:43;97595.38;;;7.31;73.88
9281;BME280;4679;47.966;7.958;2023-01-13T19:24:50;97597.41;;;7.29;73.50
9281;BME280;4679;47.966;7.958;2023-01-13T19:26:52;97602.31;;;7.25;73.41